Time;durP1;ratioP1;P1;durP2;ratioP2;P2;SDS_P1;SDS_P2;PMS_P1;PMS_P2;Temp;Humidity;BMP_temperature;BMP_pressure;BME280_temperature;BME280_humidity;BME280_pressure;Samples;Min_cycle;Max_cycle;Signal;HPM_P1;HPM_P2
2023/07/08 08:48:20;;;;;;;4.60;3.33;;;37.20;77.40;;;;;;4964138;23;20231;-74
2023/07/08 08:50:52;;;;;;;6.10;3.05;;;37.70;76.70;;;;;;4963691;28;20203;-75
2023/07/08 08:53:21;;;;;;;4.03;2.88;;;37.40;75.10;;;;;;4970779;28;20290;-76
2023/07/08 08:55:55;;;;;;;6.78;3.38;;;37.80;78.40;;;;;;4957072;28;20236;-76
2023/07/08 08:58:41;;;;;;;5.45;3.13;;;37.30;77.10;;;;;;4950701;28;20579;-76
2023/07/08 09:01:13;;;;;;;5.50;3.42;;;37.40;75.20;;;;;;4937981;29;20216;-75
2023/07/08 09:03:47;;;;;;;5.43;3.20;;;38.00;73.00;;;;;;4938165;29;20233;-74
2023/07/08 09:06:18;;;;;;;5.60;3.45;;;38.00;73.70;;;;;;4937958;29;20696;-76
2023/07/08 09:08:45;;;;;;;4.63;3.22;;;38.10;75.40;;;;;;4938034;29;20244;-75
2023/07/08 09:11:22;;;;;;;7.40;3.67;;;38.20;74.70;;;;;;4937841;29;20303;-75
2023/07/08 09:13:50;;;;;;;5.40;3.58;;;38.40;74.10;;;;;;4937956;29;20565;-76
2023/07/08 09:16:25;;;;;;;5.75;3.45;;;37.90;74.10;;;;;;4937635;29;20586;-74
2023/07/08 09:18:59;;;;;;;6.07;3.90;;;38.00;73.90;;;;;;4937710;29;20224;-76
2023/07/08 09:21:32;;;;;;;5.47;3.67;;;38.00;70.60;;;;;;4937992;29;20231;-75
2023/07/08 09:24:05;;;;;;;6.40;3.78;;;38.30;69.30;;;;;;4937788;29;20220;-76
2023/07/08 09:26:34;;;;;;;5.40;3.53;;;38.20;69.80;;;;;;4937448;29;20240;-76
2023/07/08 09:29:01;;;;;;;6.00;3.78;;;38.30;71.90;;;;;;4937500;29;20209;-75
2023/07/08 09:31:31;;;;;;;5.70;3.35;;;38.70;67.50;;;;;;4937578;29;20212;-76
2023/07/08 09:34:09;;;;;;;5.78;3.47;;;38.70;68.30;;;;;;4937767;29;20209;-76
2023/07/08 09:36:41;;;;;;;5.90;3.70;;;38.20;70.40;;;;;;4936849;29;20328;-76
2023/07/08 09:39:11;;;;;;;5.47;3.78;;;37.90;70.60;;;;;;4937441;29;20239;-75
2023/07/08 09:41:40;;;;;;;7.80;3.58;;;38.00;70.00;;;;;;4937440;29;20264;-76
2023/07/08 09:44:17;;;;;;;7.10;3.88;;;38.40;69.50;;;;;;4937515;29;20213;-75
2023/07/08 09:46:44;;;;;;;5.68;3.70;;;38.30;71.10;;;;;;4937560;29;20228;-75
2023/07/08 09:49:23;;;;;;;5.50;3.80;;;37.70;71.10;;;;;;4937167;29;20223;-75
2023/07/08 09:51:51;;;;;;;6.38;3.97;;;37.50;71.10;;;;;;4937297;29;20208;-75
2023/07/08 09:54:19;;;;;;;5.32;3.83;;;36.90;73.20;;;;;;4937301;29;20212;-74
2023/07/08 09:56:58;;;;;;;5.45;3.70;;;36.80;73.00;;;;;;4937222;29;20327;-74
2023/07/08 09:59:31;;;;;;;5.97;3.90;;;36.00;71.20;;;;;;4937374;29;20223;-75
2023/07/08 10:02:01;;;;;;;7.35;3.58;;;35.90;72.00;;;;;;4936981;29;20213;-76
2023/07/08 10:04:29;;;;;;;5.30;3.25;;;35.70;73.00;;;;;;4936732;29;20304;-76
2023/07/08 10:06:56;;;;;;;6.43;3.92;;;35.80;73.90;;;;;;4936852;29;20209;-74
2023/07/08 10:09:26;;;;;;;5.45;3.28;;;35.80;73.70;;;;;;4936810;29;20209;-73
2023/07/08 10:11:59;;;;;;;5.18;3.65;;;35.40;74.60;;;;;;4936802;29;20205;-74
2023/07/08 10:14:29;;;;;;;5.05;3.30;;;35.10;74.70;;;;;;4936828;29;20616;-74
2023/07/08 10:16:56;;;;;;;6.88;3.53;;;34.80;75.80;;;;;;4936593;29;20240;-73
2023/07/08 10:19:23;;;;;;;8.45;3.80;;;34.40;76.90;;;;;;4936511;29;20212;-73
2023/07/08 10:22:10;;;;;;;6.75;4.15;;;34.00;77.10;;;;;;4936755;29;20211;-74
2023/07/08 10:24:52;;;;;;;5.78;3.50;;;34.00;79.20;;;;;;4936571;29;20212;-74
2023/07/08 10:27:29;;;;;;;8.82;3.80;;;33.80;77.70;;;;;;4936268;29;20223;-75
2023/07/08 10:30:03;;;;;;;4.75;3.20;;;33.70;77.00;;;;;;4936415;29;20230;-74
2023/07/08 10:32:42;;;;;;;5.68;2.92;;;33.40;77.90;;;;;;4936607;29;20205;-75
2023/07/08 10:35:16;;;;;;;7.97;3.85;;;33.00;78.60;;;;;;4950694;29;20228;-76
2023/07/08 10:37:56;;;;;;;6.95;3.70;;;33.00;78.60;;;;;;4955236;28;20236;-75
2023/07/08 10:40:35;;;;;;;6.30;3.92;;;33.00;79.60;;;;;;4957522;28;20200;-75
2023/07/08 10:43:16;;;;;;;7.32;3.95;;;32.80;78.80;;;;;;4952715;28;20208;-75
2023/07/08 10:45:50;;;;;;;5.15;3.38;;;32.90;79.50;;;;;;4935804;29;20225;-76
2023/07/08 10:48:33;;;;;;;8.23;3.55;;;33.00;84.00;;;;;;4935281;29;20216;-75
2023/07/08 10:51:14;;;;;;;5.65;3.30;;;33.10;80.90;;;;;;4935978;29;20214;-76
2023/07/08 10:54:10;;;;;;;5.20;3.50;;;33.00;77.40;;;;;;4947746;28;20212;-76
2023/07/08 10:56:43;;;;;;;5.47;3.03;;;33.00;80.70;;;;;;4914223;29;20236;-76
2023/07/08 10:59:35;;;;;;;6.65;3.28;;;33.20;80.90;;;;;;4935422;29;20296;-75
2023/07/08 11:02:32;;;;;;;7.32;3.63;;;32.80;78.10;;;;;;4935058;29;20208;-74
2023/07/08 11:05:12;;;;;;;10.68;3.20;;;32.50;78.20;;;;;;4950967;28;20231;-75
2023/07/08 11:07:44;;;;;;;5.68;2.92;;;32.60;81.00;;;;;;4954041;28;20687;-75
2023/07/08 11:10:18;;;;;;;5.13;3.05;;;32.50;80.80;;;;;;4954860;28;20270;-75
2023/07/08 11:12:49;;;;;;;6.15;3.40;;;32.40;81.60;;;;;;4954590;28;20208;-73
2023/07/08 11:15:22;;;;;;;5.30;3.33;;;32.60;80.90;;;;;;4935330;29;20236;-76
2023/07/08 11:17:54;;;;;;;5.40;3.38;;;32.50;80.10;;;;;;4935000;29;20247;-73
2023/07/08 11:20:27;;;;;;;4.97;3.20;;;32.40;81.60;;;;;;4935518;29;20215;-76
2023/07/08 11:23:01;;;;;;;5.20;3.35;;;32.70;85.00;;;;;;4934195;29;20201;-76
2023/07/08 11:25:32;;;;;;;5.70;3.30;;;32.70;82.80;;;;;;4934311;29;20232;-74
2023/07/08 11:28:02;;;;;;;5.15;3.28;;;32.70;82.50;;;;;;4937347;29;20580;-74
2023/07/08 11:30:31;;;;;;;4.40;2.80;;;33.00;82.90;;;;;;4951790;28;20298;-75
2023/07/08 11:33:04;;;;;;;5.00;3.30;;;32.70;81.60;;;;;;4934612;29;20215;-73
2023/07/08 11:35:39;;;;;;;4.03;2.70;;;32.70;82.30;;;;;;4935265;29;20232;-75
2023/07/08 11:38:07;;;;;;;5.75;3.30;;;32.80;83.80;;;;;;4935404;29;20222;-75
2023/07/08 11:40:50;;;;;;;4.72;3.13;;;32.70;82.50;;;;;;4935019;29;20217;-74
2023/07/08 11:43:17;;;;;;;6.15;3.20;;;32.70;84.20;;;;;;4934900;29;20205;-74
2023/07/08 11:45:44;;;;;;;6.43;3.10;;;32.80;82.10;;;;;;4935559;29;20262;-74
2023/07/08 11:48:14;;;;;;;4.47;3.10;;;32.70;80.90;;;;;;4934838;29;20599;-74
2023/07/08 11:50:43;;;;;;;5.70;2.80;;;32.80;81.00;;;;;;4935035;29;20562;-73
2023/07/08 11:53:12;;;;;;;9.18;2.90;;;33.00;82.20;;;;;;4949062;28;20219;-75
2023/07/08 11:55:45;;;;;;;6.35;3.20;;;33.00;81.40;;;;;;4933772;29;20232;-75
2023/07/08 11:58:22;;;;;;;6.15;3.05;;;33.10;81.00;;;;;;4933184;29;20236;-75
2023/07/08 12:00:58;;;;;;;7.13;3.10;;;33.10;80.40;;;;;;4942308;29;20211;-74
2023/07/08 12:03:34;;;;;;;4.38;2.90;;;32.80;81.90;;;;;;4951170;28;20542;-74
2023/07/08 12:06:06;;;;;;;5.32;2.95;;;32.80;81.60;;;;;;4936967;29;20493;-75
2023/07/08 12:08:37;;;;;;;3.72;2.60;;;32.90;80.50;;;;;;4938950;29;20690;-75
2023/07/08 12:11:11;;;;;;;5.38;2.88;;;33.10;83.30;;;;;;4938969;29;20213;-77
2023/07/08 12:13:38;;;;;;;6.15;3.25;;;33.20;82.70;;;;;;4938941;29;20230;-76
2023/07/08 12:16:10;;;;;;;4.85;2.80;;;33.10;81.90;;;;;;4955014;29;20707;-75
2023/07/08 12:18:45;;;;;;;7.28;2.78;;;32.90;82.00;;;;;;4957981;28;20298;-75
2023/07/08 12:21:13;;;;;;;4.75;2.92;;;32.80;83.30;;;;;;4957999;28;20219;-76
2023/07/08 12:23:46;;;;;;;4.93;2.88;;;32.80;83.90;;;;;;4950569;28;20227;-77
2023/07/08 12:26:15;;;;;;;5.15;3.15;;;33.00;82.60;;;;;;4937710;29;20229;-76
2023/07/08 12:28:44;;;;;;;6.03;4.28;;;33.20;82.90;;;;;;4946585;29;20586;-76
2023/07/08 12:31:16;;;;;;;4.93;2.78;;;33.30;83.70;;;;;;4957524;28;20208;-75
2023/07/08 12:33:44;;;;;;;5.68;2.90;;;33.60;85.00;;;;;;4950062;28;20209;-74
2023/07/08 12:36:16;;;;;;;6.32;2.78;;;33.70;83.50;;;;;;4938411;29;20723;-76
2023/07/08 12:38:45;;;;;;;4.07;2.60;;;33.20;82.80;;;;;;4938499;29;20209;-74
2023/07/08 12:41:17;;;;;;;4.20;2.92;;;33.10;83.70;;;;;;4937838;29;20213;-74
2023/07/08 12:43:44;;;;;;;5.80;3.10;;;33.20;84.60;;;;;;4938230;29;20211;-75
2023/07/08 12:46:12;;;;;;;6.55;2.83;;;33.00;83.90;;;;;;4936618;29;20587;-75
2023/07/08 12:48:40;;;;;;;5.10;2.67;;;33.10;84.70;;;;;;4938068;29;20307;-74
2023/07/08 12:51:12;;;;;;;4.95;2.38;;;32.50;88.10;;;;;;4937945;29;20213;-74
2023/07/08 12:53:39;;;;;;;7.00;2.40;;;31.50;89.40;;;;;;4937647;29;20201;-74
2023/07/08 12:56:06;;;;;;;4.30;1.80;;;30.60;90.90;;;;;;4937729;29;20703;-75
2023/07/08 12:58:38;;;;;;;4.22;2.08;;;29.80;92.00;;;;;;4937674;29;20678;-75
2023/07/08 13:01:07;;;;;;;3.47;1.95;;;28.70;97.30;;;;;;4937257;29;20212;-74
2023/07/08 13:03:37;;;;;;;7.40;2.63;;;27.20;99.90;;;;;;4937380;29;20293;-76
2023/07/08 13:06:05;;;;;;;7.32;2.63;;;25.90;99.90;;;;;;4937503;29;20234;-77
2023/07/08 13:08:36;;;;;;;5.75;2.38;;;24.80;99.90;;;;;;4937781;29;20576;-76
2023/07/08 13:11:04;;;;;;;8.52;2.83;;;24.20;99.90;;;;;;4937338;29;20219;-75
2023/07/08 13:13:36;;;;;;;4.95;2.70;;;23.70;99.90;;;;;;4936973;29;20260;-76
2023/07/08 13:16:03;;;;;;;7.43;2.50;;;23.10;99.90;;;;;;4937401;29;20231;-72
2023/07/08 13:18:33;;;;;;;6.78;2.33;;;23.00;99.90;;;;;;4937403;29;20243;-72
2023/07/08 13:21:02;;;;;;;4.95;2.38;;;23.00;99.90;;;;;;4937055;29;20664;-73
2023/07/08 13:23:29;;;;;;;5.93;2.45;;;22.80;99.90;;;;;;4937066;29;20201;-73
2023/07/08 13:25:56;;;;;;;6.80;2.30;;;22.50;99.90;;;;;;4936951;29;20236;-73
2023/07/08 13:28:26;;;;;;;6.85;2.50;;;22.60;99.90;;;;;;4942774;29;20206;-73
2023/07/08 13:30:56;;;;;;;6.57;2.35;;;22.80;99.90;;;;;;4956227;28;20213;-73
2023/07/08 13:33:24;;;;;;;5.43;2.45;;;23.10;99.90;;;;;;4950647;28;20208;-75
2023/07/08 13:35:52;;;;;;;6.65;3.20;;;23.40;99.90;;;;;;4936985;29;20259;-76
2023/07/08 13:38:23;;;;;;;9.77;2.80;;;23.60;99.90;;;;;;4937128;29;20696;-76
2023/07/08 13:40:55;;;;;;;4.85;2.67;;;23.90;99.90;;;;;;4936813;29;20295;-76
2023/07/08 13:43:26;;;;;;;3.38;2.13;;;24.10;99.90;;;;;;4936781;29;20332;-76
2023/07/08 13:45:54;;;;;;;6.28;2.70;;;24.40;99.90;;;;;;4936563;29;20239;-75
2023/07/08 13:48:25;;;;;;;5.90;2.30;;;24.30;99.90;;;;;;4936725;29;20577;-74
2023/07/08 13:50:57;;;;;;;8.70;2.67;;;24.40;99.90;;;;;;4936941;29;20303;-75
2023/07/08 13:53:27;;;;;;;6.95;2.22;;;24.60;99.90;;;;;;4937011;29;20197;-75
2023/07/08 13:56:04;;;;;;;5.43;2.35;;;24.90;99.90;;;;;;4936661;29;20225;-73
2023/07/08 13:58:31;;;;;;;3.90;2.00;;;25.20;99.90;;;;;;4936452;29;20240;-73
2023/07/08 14:01:00;;;;;;;5.40;2.13;;;25.40;99.90;;;;;;4937061;29;20304;-76
2023/07/08 14:03:27;;;;;;;5.38;2.03;;;25.60;99.90;;;;;;4936782;29;20213;-76
2023/07/08 14:05:54;;;;;;;5.38;2.28;;;25.80;99.90;;;;;;4936411;29;20228;-73
2023/07/08 14:08:22;;;;;;;4.35;2.25;;;26.00;99.90;;;;;;4944825;29;20640;-75
2023/07/08 14:10:49;;;;;;;5.13;1.77;;;26.20;99.90;;;;;;4954146;28;20247;-73
2023/07/08 14:13:17;;;;;;;5.53;2.50;;;26.60;99.90;;;;;;4948963;28;20571;-73
2023/07/08 14:15:44;;;;;;;3.90;2.10;;;27.20;99.90;;;;;;4934426;29;20224;-74
2023/07/08 14:18:14;;;;;;;4.70;2.20;;;27.80;99.90;;;;;;4948409;29;20235;-73
2023/07/08 14:20:40;;;;;;;5.50;2.05;;;28.20;99.90;;;;;;4953716;28;20207;-74
2023/07/08 14:23:10;;;;;;;4.05;1.95;;;28.60;99.90;;;;;;4950571;28;20213;-74
2023/07/08 14:25:37;;;;;;;4.55;2.17;;;28.90;99.90;;;;;;4934901;29;20749;-74
2023/07/08 14:28:05;;;;;;;3.72;2.15;;;29.10;99.90;;;;;;4947315;29;20240;-74
2023/07/08 14:30:32;;;;;;;3.35;1.90;;;29.30;99.90;;;;;;4953217;28;20243;-73
2023/07/08 14:32:59;;;;;;;6.03;2.45;;;29.40;99.90;;;;;;4951422;28;20212;-74
2023/07/08 14:35:29;;;;;;;5.03;2.10;;;29.50;99.90;;;;;;4934517;29;20319;-73
2023/07/08 14:37:58;;;;;;;4.05;2.28;;;29.50;99.90;;;;;;4945112;29;20247;-78
2023/07/08 14:40:28;;;;;;;3.50;2.03;;;29.60;99.90;;;;;;4953745;28;20216;-78
2023/07/08 14:43:02;;;;;;;4.72;1.88;;;29.60;99.90;;;;;;4940450;28;20295;-73
2023/07/08 14:45:33;;;;;;;3.97;2.00;;;29.70;99.90;;;;;;4936239;29;20235;-71
2023/07/08 14:48:00;;;;;;;5.55;2.08;;;29.60;99.90;;;;;;4936956;29;20212;-77
2023/07/08 14:50:29;;;;;;;3.63;1.80;;;29.70;99.90;;;;;;4953318;28;20303;-80
2023/07/08 14:52:56;;;;;;;4.03;2.13;;;29.70;99.90;;;;;;4952207;28;20219;-77
2023/07/08 14:55:23;;;;;;;4.88;2.10;;;29.70;99.90;;;;;;4934540;29;20237;-79
2023/07/08 14:57:50;;;;;;;3.80;1.85;;;29.90;99.90;;;;;;4934598;29;20327;-74
2023/07/08 15:00:19;;;;;;;5.50;2.05;;;30.00;99.90;;;;;;4936019;29;20299;-74
2023/07/08 15:02:49;;;;;;;2.88;1.90;;;30.00;99.90;;;;;;4935846;29;20219;-73
2023/07/08 15:05:21;;;;;;;5.15;2.38;;;29.90;99.90;;;;;;4936080;29;20571;-74
2023/07/08 15:07:54;;;;;;;3.75;1.63;;;30.00;99.90;;;;;;4935424;29;20565;-74
2023/07/08 15:10:22;;;;;;;3.83;1.90;;;30.00;99.90;;;;;;4936017;29;20208;-74
2023/07/08 15:12:49;;;;;;;2.85;2.03;;;30.10;99.90;;;;;;4935686;29;20219;-74
2023/07/08 15:15:18;;;;;;;3.85;2.30;;;30.20;99.90;;;;;;4935766;29;20232;-74
2023/07/08 15:17:45;;;;;;;5.70;2.42;;;30.30;99.90;;;;;;4935916;29;20239;-74
2023/07/08 15:20:14;;;;;;;3.88;2.17;;;30.40;99.90;;;;;;4935925;29;20208;-73
2023/07/08 15:22:42;;;;;;;5.55;2.30;;;30.30;99.90;;;;;;4935335;29;20242;-73
2023/07/08 15:25:12;;;;;;;5.50;2.30;;;30.20;99.90;;;;;;4935279;29;20232;-73
2023/07/08 15:27:41;;;;;;;3.75;2.20;;;30.20;99.90;;;;;;4935301;29;20598;-73
2023/07/08 15:30:16;;;;;;;4.95;2.30;;;30.20;99.90;;;;;;4935731;29;20213;-73
2023/07/08 15:32:44;;;;;;;3.85;2.22;;;30.20;99.90;;;;;;4935056;29;20212;-74
2023/07/08 15:35:16;;;;;;;2.53;2.00;;;30.20;99.90;;;;;;4934741;29;20235;-73
2023/07/08 15:37:43;;;;;;;4.07;1.95;;;30.20;99.90;;;;;;4935032;29;20592;-73
2023/07/08 15:40:14;;;;;;;4.18;2.42;;;30.30;99.90;;;;;;4935546;29;20216;-73
2023/07/08 15:42:42;;;;;;;5.18;2.20;;;30.40;99.90;;;;;;4935412;29;20216;-73
2023/07/08 15:45:19;;;;;;;4.15;2.00;;;30.50;99.90;;;;;;4935229;29;20232;-73
2023/07/08 15:47:45;;;;;;;3.90;2.20;;;30.60;99.90;;;;;;4934899;29;20692;-74
2023/07/08 15:50:14;;;;;;;4.32;2.13;;;30.60;99.90;;;;;;4935215;29;20205;-74
2023/07/08 15:52:41;;;;;;;4.18;2.17;;;30.60;99.90;;;;;;4935124;29;20215;-74
2023/07/08 15:55:09;;;;;;;5.18;2.25;;;30.60;99.90;;;;;;4933853;29;20233;-74
2023/07/08 15:57:44;;;;;;;5.00;2.60;;;30.70;99.90;;;;;;4935219;29;20319;-73
2023/07/08 16:00:20;;;;;;;5.13;1.95;;;30.80;99.90;;;;;;4935590;29;20212;-73
2023/07/08 16:02:50;;;;;;;3.95;2.30;;;30.80;99.90;;;;;;4935056;29;20743;-73
2023/07/08 16:05:17;;;;;;;5.35;2.53;;;30.90;99.90;;;;;;4935161;29;20228;-74
2023/07/08 16:07:44;;;;;;;4.78;3.00;;;31.00;99.90;;;;;;4935311;29;20584;-73
2023/07/08 16:10:11;;;;;;;17.00;10.90;;;31.10;99.90;;;;;;4935487;29;20209;-73
2023/07/08 16:12:40;;;;;;;34.40;17.27;;;31.30;99.90;;;;;;4935170;29;20264;-73
2023/07/08 16:15:13;;;;;;;22.88;14.48;;;31.20;99.90;;;;;;4935183;29;20228;-74
2023/07/08 16:17:40;;;;;;;29.52;17.45;;;31.20;99.90;;;;;;4935279;29;20242;-73
2023/07/08 16:20:19;;;;;;;5.80;3.92;;;31.10;99.90;;;;;;4933776;29;20215;-72
2023/07/08 16:22:46;;;;;;;4.93;3.30;;;31.00;99.90;;;;;;4951640;29;20204;-73
2023/07/08 16:25:14;;;;;;;7.20;4.13;;;30.90;99.90;;;;;;4952431;28;20562;-73
2023/07/08 16:27:46;;;;;;;5.38;3.50;;;30.90;99.90;;;;;;4952850;28;20255;-73
2023/07/08 16:30:19;;;;;;;6.05;3.90;;;31.10;99.90;;;;;;4950283;28;20208;-72
2023/07/08 16:32:47;;;;;;;7.90;4.85;;;31.00;99.90;;;;;;4934822;29;20678;-73
2023/07/08 16:35:16;;;;;;;4.63;2.70;;;31.00;99.90;;;;;;4934949;29;20233;-73
2023/07/08 16:37:44;;;;;;;22.40;13.68;;;30.90;99.90;;;;;;4934685;29;20229;-72
2023/07/08 16:40:16;;;;;;;20.40;11.80;;;30.80;99.90;;;;;;4946971;29;20223;-72
2023/07/08 16:42:46;;;;;;;13.63;8.30;;;30.90;99.90;;;;;;4934786;29;20208;-73
2023/07/08 16:45:14;;;;;;;5.55;4.05;;;31.10;99.90;;;;;;4934902;29;20229;-73
2023/07/08 16:47:42;;;;;;;11.38;5.38;;;31.10;99.90;;;;;;4936792;29;20217;-73
2023/07/08 16:50:09;;;;;;;13.25;7.25;;;31.20;99.90;;;;;;4938083;29;20205;-73
2023/07/08 16:52:37;;;;;;;7.75;4.93;;;31.30;99.90;;;;;;4945850;29;20210;-74
2023/07/08 16:55:09;;;;;;;5.50;3.53;;;31.30;99.90;;;;;;4956782;28;20238;-74
2023/07/08 16:57:36;;;;;;;4.28;2.78;;;31.30;99.90;;;;;;4957241;28;20212;-73
2023/07/08 17:00:06;;;;;;;5.18;2.80;;;31.30;99.90;;;;;;4957778;28;20212;-74
2023/07/08 17:02:35;;;;;;;4.65;2.78;;;31.40;99.90;;;;;;4957259;28;20267;-74
2023/07/08 17:05:04;;;;;;;5.35;2.58;;;31.30;99.90;;;;;;4956513;28;20238;-74
2023/07/08 17:07:31;;;;;;;5.28;2.75;;;31.10;99.90;;;;;;4957591;28;20204;-74
2023/07/08 17:09:58;;;;;;;5.05;2.50;;;31.10;99.90;;;;;;4957158;28;20618;-74
2023/07/08 17:12:25;;;;;;;6.88;2.65;;;31.10;99.90;;;;;;4957562;28;20254;-74
2023/07/08 17:14:51;;;;;;;3.80;2.42;;;31.10;99.90;;;;;;4957023;28;20576;-74
2023/07/08 17:17:20;;;;;;;3.55;2.00;;;31.00;99.90;;;;;;4956871;28;20204;-74
2023/07/08 17:19:46;;;;;;;8.30;2.30;;;30.90;99.90;;;;;;4955423;28;20239;-74
2023/07/08 17:22:13;;;;;;;3.28;1.98;;;30.90;99.90;;;;;;4956862;28;20208;-74
2023/07/08 17:24:40;;;;;;;3.22;2.15;;;30.90;99.90;;;;;;4956303;28;20226;-74
2023/07/08 17:27:07;;;;;;;3.58;2.00;;;30.80;99.90;;;;;;4957063;28;20203;-74
2023/07/08 17:29:34;;;;;;;4.13;2.15;;;30.80;99.90;;;;;;4957098;28;20223;-74
2023/07/08 17:32:02;;;;;;;4.95;2.10;;;30.90;99.90;;;;;;4957076;28;20208;-74
2023/07/08 17:34:30;;;;;;;4.03;1.85;;;30.90;99.80;;;;;;4956753;28;20594;-74
2023/07/08 17:36:57;;;;;;;4.05;2.00;;;30.80;99.90;;;;;;4956817;28;20208;-74
2023/07/08 17:39:25;;;;;;;5.10;2.33;;;30.80;99.50;;;;;;4956715;28;20262;-74
2023/07/08 17:41:53;;;;;;;3.33;1.83;;;30.80;99.70;;;;;;4957316;28;20208;-74
2023/07/08 17:44:20;;;;;;;5.13;1.88;;;30.70;98.70;;;;;;4956747;28;20216;-74
2023/07/08 17:46:47;;;;;;;3.22;1.83;;;30.60;99.90;;;;;;4956711;28;20647;-74
2023/07/08 17:49:15;;;;;;;4.18;1.88;;;30.60;99.40;;;;;;4956230;28;20587;-74
2023/07/08 17:51:43;;;;;;;2.22;1.65;;;30.70;99.90;;;;;;4955464;28;20212;-74
2023/07/08 17:54:14;;;;;;;4.55;2.13;;;30.60;99.90;;;;;;4956877;28;20307;-74
2023/07/08 17:56:46;;;;;;;5.03;2.08;;;30.70;99.90;;;;;;4956341;28;20706;-74
2023/07/08 17:59:16;;;;;;;3.40;1.60;;;30.80;99.90;;;;;;4955810;28;20236;-74
2023/07/08 18:01:44;;;;;;;2.75;1.60;;;30.90;99.90;;;;;;4956267;28;20214;-74
2023/07/08 18:04:11;;;;;;;2.95;1.90;;;30.80;99.90;;;;;;4956303;28;20693;-74
2023/07/08 18:06:37;;;;;;;4.75;2.03;;;30.80;99.90;;;;;;4956548;28;20315;-74
2023/07/08 18:09:06;;;;;;;2.90;1.90;;;30.80;99.90;;;;;;4956619;28;20208;-74
2023/07/08 18:11:35;;;;;;;2.55;1.75;;;30.90;99.90;;;;;;4956538;28;20214;-74
2023/07/08 18:14:02;;;;;;;3.83;1.90;;;30.80;99.90;;;;;;4956118;28;20667;-74
2023/07/08 18:16:28;;;;;;;2.90;1.80;;;30.80;99.90;;;;;;4956218;28;20228;-74
2023/07/08 18:18:55;;;;;;;2.88;2.03;;;30.80;99.90;;;;;;4956427;28;20582;-74
2023/07/08 18:21:24;;;;;;;4.20;2.08;;;30.80;99.90;;;;;;4955161;28;20214;-74
2023/07/08 18:23:54;;;;;;;3.55;1.88;;;30.80;99.90;;;;;;4954718;28;20669;-74
2023/07/08 18:26:25;;;;;;;5.95;2.35;;;30.60;99.90;;;;;;4955268;28;20310;-74
2023/07/08 18:28:52;;;;;;;4.03;1.98;;;30.50;99.90;;;;;;4955562;28;20684;-74
2023/07/08 18:31:24;;;;;;;5.03;2.10;;;30.30;99.90;;;;;;4954714;28;20219;-74
2023/07/08 18:33:51;;;;;;;2.53;1.65;;;30.20;99.90;;;;;;4956047;28;20693;-74
2023/07/08 18:36:17;;;;;;;2.85;1.90;;;30.10;99.90;;;;;;4955177;28;20591;-74
2023/07/08 18:38:44;;;;;;;3.08;1.85;;;29.90;99.90;;;;;;4955641;28;20353;-74
2023/07/08 18:41:16;;;;;;;3.22;1.80;;;29.80;99.90;;;;;;4955604;28;20291;-74
2023/07/08 18:43:44;;;;;;;3.22;2.22;;;29.60;99.90;;;;;;4955629;28;20575;-74
2023/07/08 18:46:12;;;;;;;3.63;1.98;;;29.50;99.90;;;;;;4955900;28;20270;-74
2023/07/08 18:48:41;;;;;;;4.03;2.17;;;29.40;99.90;;;;;;4955628;28;20686;-74
2023/07/08 18:51:13;;;;;;;3.97;2.20;;;29.20;99.90;;;;;;4955626;28;20226;-74
2023/07/08 18:53:40;;;;;;;3.75;1.70;;;29.20;99.90;;;;;;4955468;28;20208;-74
2023/07/08 18:56:14;;;;;;;4.43;1.92;;;29.10;99.90;;;;;;4955452;28;20232;-74
2023/07/08 18:58:41;;;;;;;2.92;1.60;;;29.00;99.90;;;;;;4955494;28;20231;-74
2023/07/08 19:01:14;;;;;;;3.35;1.80;;;28.80;99.90;;;;;;4955484;28;20236;-74
2023/07/08 19:03:41;;;;;;;2.45;1.73;;;28.70;99.90;;;;;;4955250;28;20216;-74
2023/07/08 19:06:11;;;;;;;2.33;1.70;;;28.50;99.90;;;;;;4955226;28;20239;-74
2023/07/08 19:08:38;;;;;;;3.78;2.08;;;28.30;99.90;;;;;;4955228;28;20218;-74
2023/07/08 19:11:15;;;;;;;3.53;1.75;;;28.20;99.90;;;;;;4954330;28;20204;-74
2023/07/08 19:13:42;;;;;;;3.85;2.35;;;28.10;99.90;;;;;;4955164;28;20682;-74
2023/07/08 19:16:12;;;;;;;3.72;2.10;;;28.10;99.90;;;;;;4955171;28;20239;-74
2023/07/08 19:18:39;;;;;;;3.00;2.00;;;28.00;99.90;;;;;;4955505;28;20239;-74
2023/07/08 19:21:11;;;;;;;3.33;1.98;;;27.90;99.90;;;;;;4954995;28;20678;-73
2023/07/08 19:23:42;;;;;;;4.05;2.47;;;27.80;99.90;;;;;;4955228;28;20559;-74
2023/07/08 19:26:13;;;;;;;3.35;1.90;;;27.70;99.90;;;;;;4955391;28;20228;-73
2023/07/08 19:28:40;;;;;;;5.03;2.25;;;27.60;99.90;;;;;;4955100;28;20215;-74
2023/07/08 19:31:20;;;;;;;2.55;1.77;;;27.50;99.90;;;;;;4955113;28;20207;-74
2023/07/08 19:33:50;;;;;;;2.65;1.70;;;27.40;99.90;;;;;;4955101;28;20276;-74
2023/07/08 19:36:18;;;;;;;3.90;2.67;;;27.30;99.90;;;;;;4954736;28;20490;-73
2023/07/08 19:38:45;;;;;;;6.93;3.30;;;27.20;99.90;;;;;;4954239;28;20287;-74
2023/07/08 19:41:12;;;;;;;5.70;2.53;;;27.00;99.90;;;;;;4954845;28;20303;-73
2023/07/08 19:43:41;;;;;;;2.45;2.22;;;26.90;99.90;;;;;;4955302;28;20248;-74
2023/07/08 19:46:14;;;;;;;3.40;2.33;;;26.80;99.90;;;;;;4954550;28;20232;-73
2023/07/08 19:48:42;;;;;;;5.50;3.20;;;26.70;99.90;;;;;;4954944;28;20278;-73
2023/07/08 19:51:10;;;;;;;3.63;2.55;;;26.70;99.90;;;;;;4954856;28;20297;-74
2023/07/08 19:53:37;;;;;;;6.55;2.78;;;26.60;99.90;;;;;;4953849;28;20218;-73
2023/07/08 19:56:11;;;;;;;7.05;2.75;;;26.50;99.90;;;;;;4954587;28;20290;-73
2023/07/08 19:58:38;;;;;;;3.60;2.30;;;26.50;99.90;;;;;;4954587;28;20215;-73
2023/07/08 20:01:05;;;;;;;5.65;2.22;;;26.30;99.90;;;;;;4954980;28;20204;-73
2023/07/08 20:03:33;;;;;;;5.25;2.30;;;26.20;99.90;;;;;;4954685;28;20208;-73
2023/07/08 20:06:02;;;;;;;5.35;1.83;;;26.20;99.90;;;;;;4954360;28;20232;-74
2023/07/08 20:08:31;;;;;;;6.53;2.45;;;26.10;99.90;;;;;;4954894;28;20647;-73
2023/07/08 20:10:58;;;;;;;6.00;2.72;;;26.00;99.90;;;;;;4954683;28;20211;-74
2023/07/08 20:13:27;;;;;;;8.35;4.47;;;25.80;99.90;;;;;;4955063;28;20302;-73
2023/07/08 20:15:54;;;;;;;9.50;3.72;;;25.70;99.90;;;;;;4954611;28;20232;-73
2023/07/08 20:18:27;;;;;;;5.57;3.42;;;25.60;99.90;;;;;;4954718;28;20226;-73
2023/07/08 20:20:57;;;;;;;5.63;3.35;;;25.60;99.90;;;;;;4955201;28;20306;-74
2023/07/08 20:23:27;;;;;;;5.07;2.72;;;25.60;99.90;;;;;;4957481;28;20208;-74
2023/07/08 20:25:54;;;;;;;8.50;3.00;;;25.50;99.90;;;;;;4957636;28;20228;-74
2023/07/08 20:28:26;;;;;;;5.35;3.00;;;25.50;99.90;;;;;;4958041;28;20216;-74
2023/07/08 20:30:54;;;;;;;4.47;2.97;;;25.40;99.90;;;;;;4957674;28;20299;-73
2023/07/08 20:33:21;;;;;;;5.03;2.75;;;25.30;99.90;;;;;;4958510;28;20212;-74
2023/07/08 20:35:48;;;;;;;6.10;2.80;;;25.20;99.90;;;;;;4957599;28;20232;-73
2023/07/08 20:38:16;;;;;;;4.43;3.13;;;25.20;99.90;;;;;;4958059;28;20216;-73
2023/07/08 20:40:45;;;;;;;4.65;3.10;;;25.20;99.90;;;;;;4958000;28;20699;-73
2023/07/08 20:43:14;;;;;;;6.95;3.17;;;25.20;99.90;;;;;;4958208;28;20216;-73
2023/07/08 20:45:41;;;;;;;5.93;3.40;;;25.30;99.90;;;;;;4957946;28;20228;-73
2023/07/08 20:48:14;;;;;;;5.80;3.30;;;25.20;99.90;;;;;;4957961;28;20310;-74
2023/07/08 20:50:41;;;;;;;9.45;3.45;;;25.20;99.90;;;;;;4957511;28;20218;-74
2023/07/08 20:53:12;;;;;;;3.83;2.90;;;25.20;99.90;;;;;;4958031;28;20235;-73
2023/07/08 20:55:39;;;;;;;8.75;3.78;;;25.10;99.90;;;;;;4957787;28;20228;-74
2023/07/08 20:58:12;;;;;;;30.00;12.77;;;25.00;99.90;;;;;;4957716;28;20571;-74
2023/07/08 21:00:40;;;;;;;15.00;6.00;;;25.00;99.90;;;;;;4957410;28;20270;-74
2023/07/08 21:03:09;;;;;;;90.43;29.52;;;24.90;99.90;;;;;;4957463;28;20219;-74
2023/07/08 21:05:36;;;;;;;95.78;38.28;;;25.00;99.90;;;;;;4956956;28;20283;-73
2023/07/08 21:08:08;;;;;;;90.28;31.73;;;24.90;99.90;;;;;;4957489;28;20214;-73
2023/07/08 21:10:35;;;;;;;7.97;4.30;;;24.80;99.90;;;;;;4957471;28;20288;-74
2023/07/08 21:13:02;;;;;;;7.20;4.13;;;24.70;99.90;;;;;;4957241;28;20667;-74
2023/07/08 21:15:33;;;;;;;4.75;3.05;;;24.50;99.90;;;;;;4957023;28;20240;-74
2023/07/08 21:18:00;;;;;;;6.57;3.42;;;24.60;99.90;;;;;;4957106;28;20212;-74
2023/07/08 21:20:28;;;;;;;6.18;3.58;;;24.50;99.90;;;;;;4957354;28;20327;-74
2023/07/08 21:22:56;;;;;;;6.28;3.72;;;24.50;99.90;;;;;;4956308;28;20208;-74
2023/07/08 21:25:25;;;;;;;6.95;2.70;;;24.50;99.90;;;;;;4956975;28;20228;-74
2023/07/08 21:27:52;;;;;;;5.53;3.10;;;24.40;99.90;;;;;;4956917;28;20667;-74
2023/07/08 21:30:22;;;;;;;4.57;2.95;;;24.40;99.90;;;;;;4956955;28;20303;-74
2023/07/08 21:32:53;;;;;;;5.32;2.90;;;24.40;99.90;;;;;;4956612;28;20228;-74
2023/07/08 21:35:20;;;;;;;4.50;2.67;;;24.40;99.90;;;;;;4956205;28;20228;-74
2023/07/08 21:37:50;;;;;;;3.80;2.42;;;24.40;99.90;;;;;;4956798;28;20211;-73
2023/07/08 21:40:28;;;;;;;5.47;2.67;;;24.40;99.90;;;;;;4956671;28;20236;-73
2023/07/08 21:42:54;;;;;;;4.03;2.58;;;24.40;99.90;;;;;;4956439;28;20215;-73
2023/07/08 21:45:28;;;;;;;5.07;2.40;;;24.40;99.90;;;;;;4956563;28;20224;-73
2023/07/08 21:47:57;;;;;;;6.88;3.08;;;24.20;99.90;;;;;;4957020;28;20237;-73